createdAt,value
2018-11-26T00:00:37.828Z,35.63
2018-11-26T00:03:07.145Z,35.33
2018-11-26T00:05:36.328Z,35.13
2018-11-26T00:08:05.462Z,35.60
2018-11-26T00:10:46.423Z,35.97
2018-11-26T00:13:15.091Z,35.30
2018-11-26T00:15:43.663Z,34.70
2018-11-26T00:18:12.193Z,35.30
2018-11-26T00:20:40.967Z,35.37
2018-11-26T00:23:09.688Z,34.27
2018-11-26T00:25:38.285Z,36.10
2018-11-26T00:28:07.066Z,34.40
2018-11-26T00:30:35.948Z,36.03
2018-11-26T00:33:04.806Z,35.00
2018-11-26T00:35:33.514Z,34.67
2018-11-26T00:38:02.236Z,34.00
2018-11-26T00:40:31.129Z,34.80
2018-11-26T00:43:00.021Z,35.57
2018-11-26T00:45:28.915Z,35.90
2018-11-26T00:47:57.626Z,36.23
2018-11-26T00:50:26.416Z,37.27
2018-11-26T00:52:55.087Z,37.33
2018-11-26T00:55:23.722Z,38.47
2018-11-26T00:57:52.499Z,37.90
2018-11-26T01:00:21.159Z,36.57
2018-11-26T01:02:49.699Z,35.97
2018-11-26T01:05:23.982Z,36.13
2018-11-26T01:07:52.741Z,37.40
2018-11-26T01:10:21.454Z,35.90
2018-11-26T01:12:50.228Z,36.00
2018-11-26T01:15:19.119Z,37.93
2018-11-26T01:17:47.987Z,34.50
2018-11-26T01:20:16.911Z,36.33
2018-11-26T01:22:45.739Z,36.70
2018-11-26T01:25:14.271Z,38.17
2018-11-26T01:27:43.044Z,36.03
2018-11-26T01:30:11.610Z,35.83
2018-11-26T01:32:40.534Z,35.97
2018-11-26T01:35:09.206Z,33.73
2018-11-26T01:37:38.032Z,35.90
2018-11-26T01:40:10.118Z,35.43
2018-11-26T01:42:38.644Z,37.10
2018-11-26T01:45:07.190Z,35.23
2018-11-26T01:47:35.931Z,34.50
2018-11-26T01:50:04.887Z,34.23
2018-11-26T01:52:33.490Z,34.30
2018-11-26T01:55:02.138Z,34.27
2018-11-26T01:57:31.047Z,34.20
2018-11-26T02:00:00.115Z,34.67
2018-11-26T02:02:28.632Z,35.30
2018-11-26T02:04:57.390Z,33.80
2018-11-26T02:07:26.262Z,33.40
2018-11-26T02:09:55.159Z,31.87
2018-11-26T02:12:23.935Z,32.37
2018-11-26T02:14:52.687Z,32.27
2018-11-26T02:17:21.357Z,33.53
2018-11-26T02:19:50.108Z,32.90
2018-11-26T02:22:18.874Z,31.70
2018-11-26T02:24:47.637Z,30.77
2018-11-26T02:27:16.506Z,30.97
2018-11-26T02:29:45.164Z,31.60
2018-11-26T02:32:13.706Z,30.83
2018-11-26T02:34:42.518Z,31.10
2018-11-26T02:37:11.427Z,29.53
2018-11-26T02:39:40.303Z,29.47
2018-11-26T02:42:09.023Z,30.87
2018-11-26T02:44:37.772Z,29.40
2018-11-26T02:47:06.503Z,29.67
2018-11-26T02:49:35.264Z,29.73
2018-11-26T02:52:04.204Z,29.87
2018-11-26T02:54:33.078Z,28.80
2018-11-26T02:57:01.984Z,29.37
2018-11-26T02:59:30.620Z,28.97
2018-11-26T03:01:59.151Z,30.57
2018-11-26T03:04:27.723Z,28.77
2018-11-26T03:06:56.500Z,28.77
2018-11-26T03:09:25.884Z,30.37
2018-11-26T03:11:54.422Z,28.83
2018-11-26T03:14:23.187Z,28.60
2018-11-26T03:16:52.144Z,29.10
2018-11-26T03:19:21.052Z,28.63
2018-11-26T03:21:49.697Z,29.03
2018-11-26T03:24:18.239Z,28.87
2018-11-26T03:26:47.003Z,27.80
2018-11-26T03:29:15.665Z,28.47
2018-11-26T03:31:44.225Z,28.27
2018-11-26T03:34:12.759Z,28.33
2018-11-26T03:36:41.543Z,27.67
2018-11-26T03:39:10.446Z,28.70
2018-11-26T03:41:39.090Z,28.20
2018-11-26T03:44:07.859Z,27.97
2018-11-26T03:46:36.518Z,27.63
2018-11-26T03:49:05.543Z,27.33
2018-11-26T03:51:34.430Z,28.00
2018-11-26T03:54:03.319Z,27.70
2018-11-26T03:56:32.213Z,27.13
2018-11-26T03:59:01.236Z,27.60
2018-11-26T04:01:30.107Z,26.30
2018-11-26T04:03:58.821Z,25.83
2018-11-26T04:06:27.447Z,26.20
2018-11-26T04:08:56.195Z,26.50
2018-11-26T04:11:24.860Z,25.63
2018-11-26T04:13:53.397Z,25.67
2018-11-26T04:16:22.145Z,25.10
2018-11-26T04:18:51.360Z,25.43
2018-11-26T04:21:20.231Z,26.17
2018-11-26T04:23:48.936Z,25.30
2018-11-26T04:26:17.533Z,25.80
2018-11-26T04:28:46.291Z,24.97
2018-11-26T04:31:15.216Z,25.57
2018-11-26T04:33:43.844Z,24.70
2018-11-26T04:36:12.472Z,24.50
2018-11-26T04:38:41.244Z,24.40
2018-11-26T04:41:10.129Z,25.60
2018-11-26T04:43:38.790Z,24.57
2018-11-26T04:46:07.562Z,24.67
2018-11-26T04:48:36.440Z,24.60
2018-11-26T04:51:05.190Z,24.97
2018-11-26T04:53:33.769Z,24.97
2018-11-26T04:56:02.274Z,24.20
2018-11-26T04:58:30.803Z,25.23
2018-11-26T05:00:59.415Z,25.90
2018-11-26T05:03:28.166Z,25.13
2018-11-26T05:05:57.044Z,25.67
2018-11-26T05:08:25.963Z,25.57
2018-11-26T05:10:54.654Z,25.57
2018-11-26T05:13:23.400Z,24.93
2018-11-26T05:15:52.115Z,24.70
2018-11-26T05:18:20.894Z,24.73
2018-11-26T05:20:49.771Z,26.60
2018-11-26T05:23:18.542Z,26.40
2018-11-26T05:25:47.291Z,25.60
2018-11-26T05:28:16.185Z,25.93
2018-11-26T05:30:45.063Z,25.47
2018-11-26T05:33:13.807Z,25.40
2018-11-26T05:35:42.302Z,27.63
2018-11-26T05:38:11.069Z,25.83
2018-11-26T05:40:39.735Z,26.33
2018-11-26T05:43:08.495Z,26.30
2018-11-26T05:45:37.384Z,27.37
2018-11-26T05:48:06.328Z,27.77
2018-11-26T05:50:35.250Z,27.90
2018-11-26T05:53:03.962Z,28.00
2018-11-26T05:55:32.503Z,27.40
2018-11-26T05:58:01.292Z,26.57
2018-11-26T06:00:32.117Z,27.60
2018-11-26T06:03:00.828Z,26.93
2018-11-26T06:05:29.446Z,27.27
2018-11-26T06:07:58.198Z,27.47
2018-11-26T06:10:27.091Z,26.57
2018-11-26T06:12:55.978Z,27.97
2018-11-26T06:15:24.636Z,27.00
2018-11-26T06:17:53.388Z,27.37
2018-11-26T06:20:22.147Z,26.17
2018-11-26T06:22:50.762Z,26.53
2018-11-26T06:25:19.839Z,27.17
2018-11-26T06:27:48.446Z,27.03
2018-11-26T06:30:18.316Z,27.67
2018-11-26T06:32:46.980Z,25.53
2018-11-26T06:35:16.144Z,26.77
2018-11-26T06:37:44.912Z,26.73
2018-11-26T06:40:14.152Z,26.77
2018-11-26T06:42:42.932Z,26.53
2018-11-26T06:45:21.913Z,26.23
2018-11-26T06:47:51.105Z,26.63
2018-11-26T06:50:20.839Z,26.80
2018-11-26T06:52:49.502Z,26.33
2018-11-26T06:55:19.323Z,26.50
2018-11-26T06:57:48.351Z,26.70
2018-11-26T07:00:18.494Z,25.67
2018-11-26T07:02:47.403Z,25.87
2018-11-26T07:05:18.486Z,25.37
2018-11-26T07:07:47.316Z,25.43
2018-11-26T07:10:16.355Z,26.20
2018-11-26T07:12:45.352Z,25.73
2018-11-26T07:15:16.443Z,24.57
2018-11-26T07:17:45.672Z,25.23
2018-11-26T07:20:16.157Z,25.67
2018-11-26T07:22:44.679Z,25.43
2018-11-26T07:25:16.543Z,24.97
2018-11-26T07:27:46.665Z,24.57
2018-11-26T07:30:17.293Z,25.63
2018-11-26T07:32:45.968Z,24.57
2018-11-26T07:35:14.880Z,26.17
2018-11-26T07:37:43.914Z,25.33
2018-11-26T07:40:15.126Z,25.00
2018-11-26T07:42:46.551Z,24.47
2018-11-26T07:45:15.452Z,24.87
2018-11-26T07:47:44.344Z,24.30
2018-11-26T07:50:14.452Z,24.50
2018-11-26T07:52:43.410Z,25.77
2018-11-26T07:55:12.803Z,24.50
2018-11-26T07:57:41.549Z,24.43
2018-11-26T08:00:10.903Z,24.97
2018-11-26T08:02:39.525Z,23.90
2018-11-26T08:05:09.970Z,25.43
2018-11-26T08:07:39.981Z,25.63
2018-11-26T08:10:11.094Z,28.13
2018-11-26T08:12:39.749Z,28.33
2018-11-26T08:15:19.896Z,27.80
2018-11-26T08:17:48.540Z,27.93
2018-11-26T08:20:17.351Z,28.57
2018-11-26T08:22:46.137Z,28.23
2018-11-26T08:25:15.604Z,28.67
2018-11-26T08:27:45.403Z,28.90
2018-11-26T08:30:14.527Z,28.97
2018-11-26T08:32:44.015Z,29.90
2018-11-26T08:35:13.251Z,29.03
2018-11-26T08:37:47.407Z,27.93
2018-11-26T08:40:18.568Z,28.30
2018-11-26T08:42:51.280Z,28.10
2018-11-26T08:45:20.091Z,28.80
2018-11-26T08:47:54.236Z,29.80
2018-11-26T08:50:22.999Z,28.97
2018-11-26T08:52:51.663Z,29.53
2018-11-26T08:55:20.255Z,29.30
2018-11-26T08:57:48.801Z,29.77
2018-11-26T09:00:17.747Z,28.77
2018-11-26T09:02:49.049Z,29.60
2018-11-26T09:05:27.095Z,29.70
2018-11-26T09:07:56.005Z,30.27
2018-11-26T09:10:24.759Z,30.20
2018-11-26T09:12:53.502Z,31.00
2018-11-26T09:15:22.408Z,28.77
2018-11-26T09:17:51.309Z,29.67
2018-11-26T09:20:19.955Z,28.93
2018-11-26T09:22:48.735Z,30.03
2018-11-26T09:25:17.612Z,28.43
2018-11-26T09:27:46.624Z,28.67
2018-11-26T09:30:15.517Z,29.50
2018-11-26T09:32:44.243Z,28.93
2018-11-26T09:35:13.598Z,28.97
2018-11-26T09:37:42.384Z,28.67
2018-11-26T09:40:15.188Z,28.07
2018-11-26T09:42:44.348Z,28.50
2018-11-26T09:45:13.741Z,27.07
2018-11-26T09:47:42.541Z,27.93
2018-11-26T09:50:12.691Z,29.00
2018-11-26T09:52:41.349Z,28.07
2018-11-26T09:55:10.244Z,28.37
2018-11-26T09:57:39.021Z,27.80
2018-11-26T10:00:11.499Z,26.47
2018-11-26T10:02:40.507Z,26.30
2018-11-26T10:05:10.956Z,27.60
2018-11-26T10:07:40.132Z,26.80
2018-11-26T10:10:10.299Z,27.23
2018-11-26T10:12:39.685Z,25.57
2018-11-26T10:15:13.861Z,26.53
2018-11-26T10:17:42.796Z,27.27
2018-11-26T10:20:12.193Z,26.93
2018-11-26T10:22:41.038Z,25.90
2018-11-26T10:25:12.146Z,25.20
2018-11-26T10:27:40.779Z,27.63
2018-11-26T10:30:12.427Z,29.10
2018-11-26T10:32:41.688Z,25.90
2018-11-26T10:35:12.436Z,27.30
2018-11-26T10:37:41.339Z,27.60
2018-11-26T10:40:13.682Z,27.93
2018-11-26T10:42:42.438Z,27.90
2018-11-26T10:45:11.554Z,27.83
2018-11-26T10:47:40.098Z,27.47
2018-11-26T10:50:10.334Z,27.30
2018-11-26T10:52:39.693Z,27.63
2018-11-26T10:55:09.435Z,28.90
2018-11-26T10:57:38.335Z,26.60
2018-11-26T11:00:08.571Z,25.53
2018-11-26T11:02:42.436Z,25.77
2018-11-26T11:05:11.230Z,27.13
2018-11-26T11:07:39.991Z,26.97
2018-11-26T11:10:10.308Z,26.37
2018-11-26T11:12:39.079Z,26.37
2018-11-26T11:15:09.871Z,26.17
2018-11-26T11:17:38.769Z,27.70
2018-11-26T11:20:10.700Z,27.03
2018-11-26T11:22:39.395Z,25.27
2018-11-26T11:25:09.149Z,26.90
2018-11-26T11:27:38.043Z,26.57
2018-11-26T11:30:09.466Z,26.60
2018-11-26T11:32:38.293Z,26.47
2018-11-26T11:35:07.381Z,26.63
2018-11-26T11:37:36.469Z,27.73
2018-11-26T11:40:07.859Z,28.13
2018-11-26T11:42:38.772Z,27.57
2018-11-26T11:45:09.422Z,26.17
2018-11-26T11:47:38.311Z,27.27
2018-11-26T11:50:08.439Z,26.37
2018-11-26T11:52:36.974Z,28.93
2018-11-26T11:55:07.312Z,27.73
2018-11-26T11:57:36.180Z,29.13
2018-11-26T12:00:10.829Z,27.93
2018-11-26T12:02:40.068Z,28.97
2018-11-26T12:05:10.790Z,29.20
2018-11-26T12:07:39.682Z,28.50
2018-11-26T12:10:09.092Z,29.20
2018-11-26T12:12:37.942Z,29.97
2018-11-26T12:15:13.440Z,29.07
2018-11-26T12:17:42.925Z,30.13
2018-11-26T12:20:12.823Z,28.70
2018-11-26T12:22:42.061Z,30.53
2018-11-26T12:25:12.307Z,30.30
2018-11-26T12:27:41.234Z,61.17
2018-11-26T12:30:12.628Z,31.37
2018-11-26T12:32:41.246Z,29.43
2018-11-26T12:35:09.773Z,30.90
2018-11-26T12:37:38.609Z,30.60
2018-11-26T12:40:08.183Z,29.37
2018-11-26T12:42:36.805Z,30.90
2018-11-26T12:45:08.939Z,30.47
2018-11-26T12:47:37.710Z,30.73
2018-11-26T12:50:06.809Z,36.33
2018-11-26T12:52:35.824Z,33.50
2018-11-26T12:55:04.600Z,29.83
2018-11-26T12:57:33.432Z,31.13
2018-11-26T13:00:02.088Z,30.73
2018-11-26T13:02:30.832Z,30.87
2018-11-26T13:04:59.486Z,29.07
2018-11-26T13:07:28.128Z,31.47
2018-11-26T13:09:56.901Z,29.53
2018-11-26T13:12:25.616Z,30.10
2018-11-26T13:14:54.391Z,30.57
2018-11-26T13:17:23.265Z,29.53
2018-11-26T13:19:52.014Z,30.07
2018-11-26T13:22:20.561Z,30.17
2018-11-26T13:24:49.178Z,30.40
2018-11-26T13:27:17.921Z,31.47
2018-11-26T13:29:46.629Z,29.80
2018-11-26T13:32:15.257Z,30.90
2018-11-26T13:34:44.025Z,32.00
2018-11-26T13:37:12.740Z,30.60
2018-11-26T13:39:41.825Z,31.40
2018-11-26T13:42:10.468Z,30.87
2018-11-26T13:44:39.297Z,31.47
2018-11-26T13:47:08.231Z,31.43
2018-11-26T13:49:36.935Z,31.73
2018-11-26T13:52:05.552Z,32.27
2018-11-26T13:54:34.111Z,30.87
2018-11-26T13:57:02.644Z,31.50
2018-11-26T13:59:31.248Z,32.20
2018-11-26T14:01:59.989Z,30.30
2018-11-26T14:04:28.732Z,32.23
2018-11-26T14:06:57.488Z,31.47
2018-11-26T14:09:26.397Z,30.73
2018-11-26T14:11:55.205Z,31.40
2018-11-26T14:14:23.921Z,30.97
2018-11-26T14:16:53.084Z,28.87
2018-11-26T14:19:21.974Z,29.03
2018-11-26T14:21:50.672Z,31.80
2018-11-26T14:24:19.344Z,29.10
2018-11-26T14:26:48.132Z,29.47
2018-11-26T14:29:17.028Z,29.87
2018-11-26T14:31:45.740Z,29.40
2018-11-26T14:34:14.518Z,29.07
2018-11-26T14:36:43.181Z,28.63
2018-11-26T14:39:11.949Z,29.93
2018-11-26T14:41:40.666Z,29.03
2018-11-26T14:44:09.448Z,28.30
2018-11-26T14:46:38.147Z,29.53
2018-11-26T14:49:06.905Z,29.17
2018-11-26T14:51:36.694Z,29.50
2018-11-26T14:54:05.401Z,30.67
2018-11-26T14:56:33.914Z,28.60
2018-11-26T14:59:02.455Z,28.33
2018-11-26T15:01:31.049Z,29.97
2018-11-26T15:03:59.809Z,30.63
2018-11-26T15:06:28.539Z,30.13
2018-11-26T15:08:57.304Z,31.47
2018-11-26T15:11:26.200Z,31.67
2018-11-26T15:13:55.007Z,30.30
2018-11-26T15:16:23.774Z,31.57
2018-11-26T15:18:52.797Z,31.07
2018-11-26T15:21:21.687Z,32.43
2018-11-26T15:23:50.385Z,32.27
2018-11-26T15:26:19.047Z,31.40
2018-11-26T15:28:47.818Z,32.10
2018-11-26T15:31:16.515Z,31.67
2018-11-26T15:33:45.334Z,31.00
2018-11-26T15:36:14.116Z,30.90
2018-11-26T15:38:42.826Z,30.97
2018-11-26T15:41:11.620Z,31.37
2018-11-26T15:43:40.386Z,30.93
2018-11-26T15:46:08.953Z,30.27
2018-11-26T15:48:38.351Z,30.30
2018-11-26T15:51:07.026Z,30.63
2018-11-26T15:53:35.576Z,29.53
2018-11-26T15:56:04.212Z,29.93
2018-11-26T15:58:34.464Z,30.87
2018-11-26T16:01:03.023Z,31.17
2018-11-26T16:03:31.556Z,30.50
2018-11-26T16:06:00.153Z,30.47
2018-11-26T16:08:28.924Z,29.93
2018-11-26T16:10:57.818Z,30.87
2018-11-26T16:13:26.718Z,30.60
2018-11-26T16:15:55.600Z,30.67
2018-11-26T16:18:24.525Z,29.03
2018-11-26T16:20:53.421Z,31.40
2018-11-26T16:23:22.088Z,32.77
2018-11-26T16:25:50.637Z,31.33
2018-11-26T16:28:21.022Z,30.60
2018-11-26T16:30:49.517Z,31.03
2018-11-26T16:33:18.116Z,30.90
2018-11-26T16:35:47.522Z,31.27
2018-11-26T16:38:16.190Z,31.43
2018-11-26T16:40:44.829Z,29.80
2018-11-26T16:43:13.376Z,30.87
2018-11-26T16:45:42.133Z,29.33
2018-11-26T16:48:10.833Z,29.13
2018-11-26T16:50:39.600Z,29.90
2018-11-26T16:53:08.262Z,31.47
2018-11-26T16:55:37.012Z,29.33
2018-11-26T16:58:05.896Z,30.57
2018-11-26T17:00:34.824Z,31.57
2018-11-26T17:03:03.728Z,29.17
2018-11-26T17:05:33.095Z,30.40
2018-11-26T17:08:01.904Z,31.03
2018-11-26T17:10:30.577Z,32.40
2018-11-26T17:12:59.334Z,30.07
2018-11-26T17:15:28.074Z,30.90
2018-11-26T17:17:56.875Z,30.80
2018-11-26T17:20:25.728Z,29.57
2018-11-26T17:22:54.653Z,30.30
2018-11-26T17:25:23.416Z,30.97
2018-11-26T17:27:51.964Z,31.33
2018-11-26T17:30:23.593Z,29.67
2018-11-26T17:32:53.052Z,28.80
2018-11-26T17:35:21.700Z,30.13
2018-11-26T17:37:50.469Z,29.00
2018-11-26T17:40:19.644Z,30.17
2018-11-26T17:42:48.480Z,29.87
2018-11-26T17:45:17.981Z,30.10
2018-11-26T17:47:48.220Z,31.53
2018-11-26T17:50:26.676Z,28.90
2018-11-26T17:52:55.359Z,28.70
2018-11-26T17:55:23.987Z,29.37
2018-11-26T17:57:52.622Z,31.13
2018-11-26T18:00:26.173Z,30.13
2018-11-26T18:02:55.633Z,30.00
2018-11-26T18:05:27.848Z,31.33
2018-11-26T18:07:59.716Z,31.03
2018-11-26T18:10:28.415Z,28.80
2018-11-26T18:12:57.217Z,30.23
2018-11-26T18:15:26.121Z,31.07
2018-11-26T18:17:54.780Z,28.07
2018-11-26T18:20:24.189Z,30.20
2018-11-26T18:22:54.005Z,29.53
2018-11-26T18:25:24.428Z,29.13
2018-11-26T18:28:01.860Z,29.67
2018-11-26T18:30:31.479Z,28.63
2018-11-26T18:33:00.262Z,27.70
2018-11-26T18:35:29.240Z,29.07
2018-11-26T18:37:58.272Z,27.63
2018-11-26T18:40:27.169Z,29.57
2018-11-26T18:42:56.061Z,28.00
2018-11-26T18:45:24.788Z,27.87
2018-11-26T18:47:53.594Z,28.53
2018-11-26T18:50:22.284Z,27.73
2018-11-26T18:52:51.243Z,29.43
2018-11-26T18:55:20.656Z,28.00
2018-11-26T18:57:49.492Z,28.63
2018-11-26T19:00:20.752Z,29.37
2018-11-26T19:02:49.538Z,29.73
2018-11-26T19:05:18.905Z,28.90
2018-11-26T19:07:47.813Z,28.30
2018-11-26T19:10:20.285Z,29.27
2018-11-26T19:12:55.012Z,28.20
2018-11-26T19:15:25.732Z,28.93
2018-11-26T19:17:56.692Z,28.73
2018-11-26T19:20:25.448Z,29.27
2018-11-26T19:22:54.225Z,28.17
2018-11-26T19:25:22.936Z,29.13
2018-11-26T19:27:51.690Z,29.70
2018-11-26T19:30:23.011Z,29.73
2018-11-26T19:32:49.338Z,27.73
2018-11-26T19:35:17.868Z,28.33
2018-11-26T19:37:46.437Z,28.77
2018-11-26T19:40:16.034Z,29.53
2018-11-26T19:42:46.824Z,28.20
2018-11-26T19:45:17.568Z,28.00
2018-11-26T19:47:46.416Z,29.47
2018-11-26T19:50:16.630Z,28.23
2018-11-26T19:52:46.510Z,29.17
2018-11-26T19:55:18.881Z,30.33
2018-11-26T19:57:47.793Z,29.17
2018-11-26T20:00:18.173Z,30.50
2018-11-26T20:02:50.552Z,30.00
2018-11-26T20:05:20.352Z,28.70
2018-11-26T20:07:48.966Z,28.23
2018-11-26T20:10:18.281Z,28.80
2018-11-26T20:12:47.205Z,29.43
2018-11-26T20:15:16.982Z,27.80
2018-11-26T20:17:45.910Z,27.23
2018-11-26T20:20:14.839Z,28.10
2018-11-26T20:22:43.676Z,28.07
2018-11-26T20:25:13.704Z,28.93
2018-11-26T20:27:43.073Z,28.10
2018-11-26T20:30:13.380Z,27.90
2018-11-26T20:32:43.879Z,27.70
2018-11-26T20:35:13.169Z,26.67
2018-11-26T20:37:41.948Z,27.53
2018-11-26T20:40:12.094Z,28.97
2018-11-26T20:42:43.109Z,27.90
2018-11-26T20:45:12.430Z,27.53
2018-11-26T20:47:41.008Z,27.67
2018-11-26T20:50:12.040Z,27.87
2018-11-26T20:52:40.992Z,28.27
2018-11-26T20:55:11.444Z,28.67
2018-11-26T20:57:40.145Z,26.53
2018-11-26T21:00:10.381Z,27.43
2018-11-26T21:02:39.168Z,26.90
2018-11-26T21:05:08.045Z,27.83
2018-11-26T21:07:36.772Z,24.53
2018-11-26T21:10:09.092Z,26.60
2018-11-26T21:12:38.021Z,25.87
2018-11-26T21:15:07.937Z,26.70
2018-11-26T21:17:36.501Z,26.80
2018-11-26T21:20:10.681Z,27.20
2018-11-26T21:22:39.420Z,27.33
2018-11-26T21:25:09.961Z,27.77
2018-11-26T21:27:39.571Z,26.77
2018-11-26T21:30:11.180Z,27.00
2018-11-26T21:32:40.138Z,23.17
2018-11-26T21:35:10.394Z,26.40
2018-11-26T21:37:40.005Z,27.03
2018-11-26T21:40:10.310Z,26.13
2018-11-26T21:42:39.226Z,26.03
2018-11-26T21:45:11.009Z,25.97
2018-11-26T21:47:39.902Z,26.37
2018-11-26T21:50:10.391Z,26.60
2018-11-26T21:52:39.250Z,25.87
2018-11-26T21:55:15.506Z,25.63
2018-11-26T21:57:44.130Z,25.97
2018-11-26T22:00:19.089Z,27.47
2018-11-26T22:02:47.879Z,27.03
2018-11-26T22:05:16.513Z,26.63
2018-11-26T22:07:45.307Z,26.30
2018-11-26T22:10:17.476Z,26.67
2018-11-26T22:12:47.628Z,27.37
2018-11-26T22:15:16.181Z,25.80
2018-11-26T22:17:44.926Z,27.67
2018-11-26T22:20:15.333Z,26.87
2018-11-26T22:22:44.209Z,24.07
2018-11-26T22:25:13.089Z,26.27
2018-11-26T22:27:41.796Z,26.73
2018-11-26T22:30:14.213Z,26.30
2018-11-26T22:32:42.826Z,25.87
2018-11-26T22:35:11.447Z,27.70
2018-11-26T22:37:40.004Z,26.47
2018-11-26T22:40:11.156Z,26.43
2018-11-26T22:42:40.292Z,26.93
2018-11-26T22:45:11.128Z,26.40
2018-11-26T22:47:40.049Z,26.50
2018-11-26T22:50:11.528Z,27.73
2018-11-26T22:52:40.413Z,28.23
2018-11-26T22:55:10.457Z,25.13
2018-11-26T22:57:39.529Z,27.67
2018-11-26T23:00:23.860Z,28.00
2018-11-26T23:02:54.181Z,28.07
2018-11-26T23:05:22.944Z,27.83
2018-11-26T23:07:51.785Z,27.37
2018-11-26T23:10:20.716Z,27.70
2018-11-26T23:12:49.383Z,27.07
2018-11-26T23:15:18.509Z,27.43
2018-11-26T23:17:47.652Z,26.97
2018-11-26T23:20:16.764Z,28.03
2018-11-26T23:22:45.319Z,25.70
2018-11-26T23:25:14.344Z,29.50
2018-11-26T23:27:43.296Z,27.97
2018-11-26T23:30:16.325Z,27.43
2018-11-26T23:32:46.024Z,28.30
2018-11-26T23:35:14.918Z,26.67
2018-11-26T23:37:43.668Z,26.77
2018-11-26T23:40:13.054Z,26.97
2018-11-26T23:42:41.850Z,28.43
2018-11-26T23:45:17.565Z,28.03
2018-11-26T23:47:46.103Z,27.57
2018-11-26T23:50:15.774Z,28.23
2018-11-26T23:52:45.152Z,28.63
2018-11-26T23:55:14.325Z,28.37
2018-11-26T23:57:44.110Z,27.73
